Time;durP1;ratioP1;P1;durP2;ratioP2;P2;SDS_P1;SDS_P2;PMS_P1;PMS_P2;Temp;Humidity;BMP_temperature;BMP_pressure;BME280_temperature;BME280_humidity;BME280_pressure;Samples;Min_cycle;Max_cycle;Signal;HPM_P1;HPM_P2
2022/03/12 00:01:08;;;;;;;0.10;0.10;;;3.30;1.00;226.50;231333.00;;;;4990062;28;20242;-71
2022/03/12 00:03:36;;;;;;;0.10;0.10;;;3.20;1.00;226.50;231333.00;;;;4990394;28;20280;-73
2022/03/12 00:06:09;;;;;;;0.10;0.10;;;3.20;1.00;226.50;231333.00;;;;4988504;28;20213;-73
2022/03/12 00:08:44;;;;;;;0.10;0.10;;;3.20;1.00;226.50;231333.00;;;;4971445;28;20256;-72
2022/03/12 00:11:16;;;;;;;0.10;0.10;;;3.20;1.00;226.50;231333.00;;;;4984840;28;20192;-72
2022/03/12 00:13:46;;;;;;;0.10;0.10;;;3.20;1.00;226.50;231333.00;;;;4981824;28;20208;-72
2022/03/12 00:16:22;;;;;;;0.10;0.10;;;3.20;1.00;226.50;231333.00;;;;4964346;28;20200;-72
2022/03/12 00:18:55;;;;;;;0.10;0.10;;;3.10;1.00;226.50;231333.00;;;;4981767;28;20237;-72
2022/03/12 00:21:35;;;;;;;0.10;0.10;;;3.20;1.00;226.50;231333.00;;;;4981243;28;20595;-72
2022/03/12 00:24:05;;;;;;;0.20;0.20;;;3.10;1.00;226.50;231333.00;;;;4981898;28;20207;-72
2022/03/12 00:26:40;;;;;;;0.10;0.10;;;3.00;1.00;226.50;231333.00;;;;4982816;28;20255;-71
2022/03/12 00:29:14;;;;;;;0.10;0.10;;;3.10;1.00;226.50;231333.00;;;;4981868;28;20716;-71
2022/03/12 00:31:44;;;;;;;0.10;0.10;;;3.00;1.00;226.50;231333.00;;;;4982245;28;20281;-71
2022/03/12 00:34:13;;;;;;;0.10;0.10;;;3.00;1.00;226.50;231333.00;;;;4982747;28;20228;-71
2022/03/12 00:36:42;;;;;;;0.10;0.10;;;3.00;1.00;226.50;231333.00;;;;4981588;28;20215;-71
2022/03/12 00:39:14;;;;;;;0.20;0.20;;;3.00;1.00;226.50;231333.00;;;;4981546;28;20213;-70
2022/03/12 00:41:43;;;;;;;0.10;0.10;;;3.00;1.00;226.50;231333.00;;;;4982132;28;20204;-70
2022/03/12 00:44:16;;;;;;;0.10;0.10;;;3.00;1.00;226.50;231333.00;;;;4980250;28;20204;-70
2022/03/12 00:46:44;;;;;;;0.10;0.10;;;2.90;1.00;226.50;231333.00;;;;4980682;28;20228;-70
2022/03/12 00:49:12;;;;;;;0.10;0.10;;;2.90;1.00;226.50;231333.00;;;;4981330;28;20305;-71
2022/03/12 00:51:44;;;;;;;0.10;0.10;;;2.90;1.00;226.50;231333.00;;;;4981148;28;20200;-71
2022/03/12 00:54:12;;;;;;;0.13;0.13;;;3.00;1.00;226.50;231333.00;;;;4981037;28;20204;-71
2022/03/12 00:56:40;;;;;;;0.10;0.10;;;3.00;1.00;226.50;231333.00;;;;4981740;28;20589;-71
2022/03/12 00:59:09;;;;;;;0.10;0.10;;;3.00;1.00;226.50;231333.00;;;;4980812;28;20696;-71
2022/03/12 01:01:37;;;;;;;0.10;0.10;;;2.90;1.00;226.50;231333.00;;;;4981965;28;20192;-70
2022/03/12 01:04:06;;;;;;;0.10;0.10;;;2.90;1.00;226.50;231333.00;;;;4981384;28;20272;-70
2022/03/12 01:06:35;;;;;;;0.10;0.10;;;2.90;1.00;226.50;231333.00;;;;4983444;28;20282;-72
2022/03/12 01:09:05;;;;;;;0.10;0.10;;;3.00;1.00;226.50;231333.00;;;;4982194;28;20203;-71
2022/03/12 01:11:34;;;;;;;0.10;0.10;;;2.90;1.00;226.50;231333.00;;;;4984313;28;20617;-72
2022/03/12 01:14:02;;;;;;;0.00;0.00;;;2.90;1.00;226.50;231333.00;;;;4986232;28;20208;-72
2022/03/12 01:16:31;;;;;;;0.10;0.10;;;2.90;1.00;226.50;231333.00;;;;4986239;28;20555;-73
2022/03/12 01:18:59;;;;;;;0.10;0.10;;;2.90;1.00;226.50;231333.00;;;;4984953;28;20197;-72
2022/03/12 01:21:29;;;;;;;0.00;0.00;;;2.90;1.00;226.50;231333.00;;;;4985114;28;20240;-72
2022/03/12 01:23:57;;;;;;;0.10;0.10;;;2.90;1.00;226.50;231333.00;;;;4985609;28;20201;-72
2022/03/12 01:26:27;;;;;;;0.10;0.10;;;3.00;1.00;226.50;231333.00;;;;4985539;28;20231;-72
2022/03/12 01:28:55;;;;;;;0.10;0.10;;;3.00;1.00;226.50;231333.00;;;;4996494;28;20871;-72
2022/03/12 01:31:23;;;;;;;0.10;0.10;;;3.00;1.00;226.50;231333.00;;;;4993733;28;20304;-72
2022/03/12 01:33:51;;;;;;;0.10;0.10;;;3.00;1.00;226.50;231333.00;;;;4994359;28;20209;-71
2022/03/12 01:36:20;;;;;;;0.10;0.10;;;2.90;1.00;226.50;231333.00;;;;4995735;28;20204;-71
2022/03/12 01:38:51;;;;;;;0.10;0.10;;;2.80;1.00;226.50;231333.00;;;;4996791;28;20196;-71
2022/03/12 01:41:23;;;;;;;0.10;0.10;;;2.80;1.00;226.50;231333.00;;;;4996684;28;20188;-71
2022/03/12 01:43:54;;;;;;;0.10;0.10;;;2.80;1.00;226.50;231333.00;;;;4996894;28;20227;-71
2022/03/12 01:46:34;;;;;;;0.10;0.10;;;2.90;1.00;226.50;231333.00;;;;4996783;28;20671;-71
2022/03/12 01:49:08;;;;;;;0.10;0.10;;;2.80;1.00;226.50;231333.00;;;;4990523;28;20189;-71
2022/03/12 01:51:38;;;;;;;0.08;0.08;;;2.80;1.00;226.50;231333.00;;;;4984636;28;20203;-71
2022/03/12 01:54:07;;;;;;;0.10;0.10;;;2.80;1.00;226.50;231333.00;;;;4984729;28;20204;-71
2022/03/12 01:56:35;;;;;;;0.10;0.10;;;2.80;1.00;226.50;231333.00;;;;4983438;28;20193;-71
2022/03/12 01:59:05;;;;;;;0.10;0.10;;;2.80;1.00;226.50;231333.00;;;;4983481;28;20256;-71
2022/03/12 02:01:33;;;;;;;0.10;0.10;;;2.80;1.00;226.50;231333.00;;;;4985676;28;20208;-70
2022/03/12 02:04:08;;;;;;;0.10;0.10;;;2.80;1.00;226.50;231333.00;;;;4984006;28;20243;-72
2022/03/12 02:06:41;;;;;;;0.20;0.20;;;2.70;1.00;226.50;231333.00;;;;4982752;28;20220;-70
2022/03/12 02:09:14;;;;;;;0.10;0.10;;;2.70;1.00;226.50;231333.00;;;;4983778;28;20621;-70
2022/03/12 02:11:49;;;;;;;0.10;0.10;;;2.60;1.00;226.50;231333.00;;;;4985525;28;20291;-71
2022/03/12 02:14:25;;;;;;;0.10;0.10;;;2.60;1.00;226.50;231333.00;;;;4983049;28;20196;-71
2022/03/12 02:16:58;;;;;;;0.10;0.10;;;2.60;1.00;226.50;231333.00;;;;4983357;28;20204;-71
2022/03/12 02:19:30;;;;;;;0.15;0.15;;;2.60;1.00;226.50;231333.00;;;;4984750;28;20224;-71
2022/03/12 02:22:00;;;;;;;0.10;0.10;;;2.70;1.00;226.50;231333.00;;;;4983896;28;20733;-71
2022/03/12 02:24:32;;;;;;;0.10;0.10;;;2.70;1.00;226.50;231333.00;;;;4985330;28;20563;-71
2022/03/12 02:27:05;;;;;;;0.10;0.10;;;2.60;1.00;226.50;231333.00;;;;4983247;28;20212;-71
2022/03/12 02:29:34;;;;;;;0.15;0.15;;;2.50;1.00;226.50;231333.00;;;;4984103;28;20227;-70
2022/03/12 02:32:06;;;;;;;0.10;0.10;;;2.50;1.00;226.50;231333.00;;;;4985062;28;20212;-70
2022/03/12 02:34:41;;;;;;;0.10;0.10;;;2.50;1.00;226.50;231333.00;;;;4984660;28;20207;-70
2022/03/12 02:37:09;;;;;;;0.10;0.10;;;2.50;1.00;226.50;231333.00;;;;4983319;28;20239;-72
2022/03/12 02:39:40;;;;;;;0.10;0.10;;;2.40;1.00;226.50;231333.00;;;;4983404;28;20209;-72
2022/03/12 02:42:11;;;;;;;0.10;0.10;;;2.60;1.00;226.50;231333.00;;;;4983188;28;20205;-71
2022/03/12 02:44:38;;;;;;;0.10;0.10;;;2.50;1.00;226.50;231333.00;;;;4983220;28;20816;-71
2022/03/12 02:47:17;;;;;;;0.10;0.10;;;2.50;1.00;226.50;231333.00;;;;4982407;28;20224;-71
2022/03/12 02:49:51;;;;;;;0.10;0.10;;;2.40;1.00;226.50;231333.00;;;;4984094;28;20776;-71
2022/03/12 02:52:21;;;;;;;0.10;0.10;;;2.40;1.00;226.50;231333.00;;;;4982787;28;20204;-71
2022/03/12 02:54:52;;;;;;;0.10;0.10;;;2.40;1.00;226.50;231333.00;;;;4982533;28;20189;-71
2022/03/12 02:57:27;;;;;;;0.10;0.10;;;2.40;1.00;226.50;231333.00;;;;4982847;28;20193;-71
2022/03/12 03:00:04;;;;;;;0.10;0.10;;;2.20;1.00;226.50;231333.00;;;;4980953;28;20227;-71
2022/03/12 03:02:39;;;;;;;0.10;0.10;;;2.10;1.00;226.50;231333.00;;;;4983970;28;20223;-70
2022/03/12 03:05:35;;;;;;;0.10;0.10;;;2.10;1.00;226.50;231333.00;;;;4983246;28;20196;-70
2022/03/12 03:08:06;;;;;;;0.10;0.10;;;2.10;1.00;226.50;231333.00;;;;4983620;28;20320;-72
2022/03/12 03:10:38;;;;;;;0.10;0.10;;;2.00;1.00;226.50;231333.00;;;;4983219;28;20221;-72
2022/03/12 03:13:36;;;;;;;0.10;0.10;;;2.00;1.00;226.50;231333.00;;;;4983384;28;20201;-70
2022/03/12 03:16:10;;;;;;;0.10;0.10;;;2.00;1.00;226.50;231333.00;;;;4982362;28;20213;-70
2022/03/12 03:18:40;;;;;;;0.10;0.10;;;2.00;1.00;226.50;231333.00;;;;4982627;28;20201;-71
2022/03/12 03:21:14;;;;;;;0.10;0.10;;;2.00;1.00;226.50;231333.00;;;;4981008;28;20232;-72
2022/03/12 03:23:44;;;;;;;0.10;0.10;;;2.00;1.00;226.50;231333.00;;;;4972007;28;20204;-71
2022/03/12 03:26:15;;;;;;;0.20;0.20;;;2.00;1.00;226.50;231333.00;;;;4982378;28;20204;-72
2022/03/12 03:28:43;;;;;;;0.10;0.10;;;1.90;1.00;226.50;231333.00;;;;4982423;28;20628;-70
2022/03/12 03:31:11;;;;;;;0.10;0.10;;;1.90;1.00;226.50;231333.00;;;;4982217;28;20275;-70
2022/03/12 03:33:39;;;;;;;0.10;0.10;;;1.90;1.00;226.50;231333.00;;;;4982185;28;20654;-70
2022/03/12 03:36:07;;;;;;;0.10;0.10;;;1.90;1.00;226.50;231333.00;;;;4982522;28;20209;-69
2022/03/12 03:38:36;;;;;;;0.10;0.10;;;1.90;1.00;226.50;231333.00;;;;4983044;28;20196;-69
2022/03/12 03:41:04;;;;;;;0.20;0.20;;;1.90;1.00;226.50;231333.00;;;;4981644;28;20217;-69
2022/03/12 03:43:33;;;;;;;0.20;0.20;;;1.80;1.00;226.50;231333.00;;;;4982057;28;20243;-71
2022/03/12 03:46:01;;;;;;;0.10;0.10;;;1.80;1.00;226.50;231333.00;;;;4981510;28;20588;-70
2022/03/12 03:48:37;;;;;;;0.13;0.13;;;1.70;1.00;226.50;231333.00;;;;4982644;28;20313;-70
2022/03/12 03:51:06;;;;;;;0.17;0.17;;;1.80;1.00;226.50;231333.00;;;;4981699;28;20224;-70
2022/03/12 03:53:34;;;;;;;0.10;0.10;;;1.90;1.00;226.50;231333.00;;;;4981758;28;20255;-70
2022/03/12 03:56:04;;;;;;;0.10;0.10;;;1.70;1.00;226.50;231333.00;;;;4981804;28;20200;-69
2022/03/12 03:58:34;;;;;;;0.20;0.20;;;1.80;1.00;226.50;231333.00;;;;4981198;28;20254;-69
2022/03/12 04:01:10;;;;;;;0.10;0.10;;;1.70;1.00;226.50;231333.00;;;;4982388;28;20247;-71
2022/03/12 04:03:41;;;;;;;0.10;0.10;;;1.70;1.00;226.50;231333.00;;;;4981899;28;20284;-71
2022/03/12 04:06:09;;;;;;;0.10;0.10;;;1.60;1.00;226.50;231333.00;;;;4982595;28;20212;-71
2022/03/12 04:08:37;;;;;;;0.10;0.10;;;1.60;1.00;226.50;231333.00;;;;4981849;28;20220;-70
2022/03/12 04:11:05;;;;;;;0.13;0.13;;;1.50;1.00;226.50;231333.00;;;;4981183;28;20244;-70
2022/03/12 04:13:36;;;;;;;0.10;0.10;;;1.50;1.00;226.50;231333.00;;;;4980314;28;20495;-71
2022/03/12 04:16:06;;;;;;;0.10;0.10;;;1.50;1.00;226.50;231333.00;;;;4980997;28;20288;-70
2022/03/12 04:18:36;;;;;;;0.10;0.10;;;1.60;1.00;226.50;231333.00;;;;4980930;28;20357;-70
2022/03/12 04:21:04;;;;;;;0.10;0.10;;;1.60;1.00;226.50;231333.00;;;;4980563;28;20213;-70
2022/03/12 04:23:33;;;;;;;0.10;0.10;;;1.50;1.00;226.50;231333.00;;;;4981654;28;20839;-70
2022/03/12 04:26:01;;;;;;;0.10;0.10;;;1.50;1.00;226.50;231333.00;;;;4984837;28;20205;-70
2022/03/12 04:28:32;;;;;;;0.10;0.10;;;1.50;1.00;226.50;231333.00;;;;4993010;28;20705;-70
2022/03/12 04:31:03;;;;;;;0.10;0.10;;;1.50;1.00;226.50;231333.00;;;;4983943;28;20228;-70
2022/03/12 04:33:32;;;;;;;0.10;0.10;;;1.60;1.00;226.50;231333.00;;;;4984499;28;20204;-70
2022/03/12 04:36:03;;;;;;;0.10;0.10;;;1.60;1.00;226.50;231333.00;;;;4983328;28;20687;-70
2022/03/12 04:38:32;;;;;;;0.20;0.20;;;1.60;1.00;226.50;231333.00;;;;4982929;28;20204;-70
2022/03/12 04:41:00;;;;;;;0.20;0.20;;;1.60;1.00;226.50;231333.00;;;;4983563;28;20217;-70
2022/03/12 04:43:30;;;;;;;0.15;0.15;;;1.60;1.00;226.50;231333.00;;;;4982615;28;20251;-71
2022/03/12 04:46:00;;;;;;;0.10;0.10;;;1.60;1.00;226.50;231333.00;;;;4964219;28;20665;-71
2022/03/12 04:48:30;;;;;;;0.10;0.10;;;1.60;1.00;226.50;231333.00;;;;4980201;28;20228;-71
2022/03/12 04:50:58;;;;;;;0.10;0.10;;;1.60;1.00;226.50;231333.00;;;;4980548;28;20601;-71
2022/03/12 04:53:27;;;;;;;0.10;0.10;;;1.70;1.00;226.50;231333.00;;;;4982041;28;20201;-70
2022/03/12 04:55:56;;;;;;;0.20;0.20;;;1.60;1.00;226.50;231333.00;;;;4980605;28;20188;-71
2022/03/12 04:58:25;;;;;;;0.10;0.10;;;1.60;1.00;226.50;231333.00;;;;4981594;28;20259;-71
2022/03/12 05:00:53;;;;;;;0.10;0.10;;;1.60;1.00;226.50;231333.00;;;;4983614;28;20707;-70
2022/03/12 05:03:24;;;;;;;0.20;0.20;;;1.70;1.00;226.50;231333.00;;;;4981304;28;20197;-71
2022/03/12 05:05:55;;;;;;;0.20;0.20;;;1.80;1.00;226.50;231333.00;;;;4980324;28;20287;-71
2022/03/12 05:08:28;;;;;;;0.10;0.10;;;1.80;1.00;226.50;231333.00;;;;4981853;28;20216;-70
2022/03/12 05:10:58;;;;;;;0.10;0.10;;;1.70;1.00;226.50;231333.00;;;;4980171;28;20757;-71
2022/03/12 05:13:30;;;;;;;0.20;0.20;;;1.80;1.00;226.50;231333.00;;;;4981690;28;20196;-70
2022/03/12 05:16:03;;;;;;;0.10;0.10;;;1.70;1.00;226.50;231333.00;;;;4982139;28;20681;-70
2022/03/12 05:18:32;;;;;;;0.17;0.17;;;1.70;1.00;226.50;231333.00;;;;4981129;28;20209;-70
2022/03/12 05:21:01;;;;;;;0.20;0.20;;;1.70;1.00;226.50;231333.00;;;;4981127;28;20493;-71
2022/03/12 05:23:33;;;;;;;0.20;0.20;;;1.80;1.00;226.50;231333.00;;;;4982510;28;20248;-72
2022/03/12 05:26:02;;;;;;;0.20;0.20;;;1.60;1.00;226.50;231333.00;;;;4984003;28;20690;-71
2022/03/12 05:28:32;;;;;;;0.20;0.20;;;1.50;1.00;226.50;231333.00;;;;4982966;28;20540;-71
2022/03/12 05:31:04;;;;;;;0.10;0.10;;;1.70;1.00;226.50;231333.00;;;;4982251;28;20244;-71
2022/03/12 05:33:34;;;;;;;0.20;0.20;;;1.60;1.00;226.50;231333.00;;;;4982427;28;20657;-70
2022/03/12 05:36:05;;;;;;;0.13;0.13;;;1.60;1.00;226.50;231333.00;;;;4981284;28;20604;-70
2022/03/12 05:38:36;;;;;;;0.20;0.20;;;1.60;1.00;226.50;231333.00;;;;4981421;28;20248;-70
2022/03/12 05:41:09;;;;;;;0.17;0.17;;;1.60;1.00;226.50;231333.00;;;;4979746;28;20720;-71
2022/03/12 05:43:42;;;;;;;0.20;0.20;;;1.60;1.00;226.50;231333.00;;;;4980415;28;20189;-70
2022/03/12 05:46:13;;;;;;;0.20;0.20;;;1.70;1.00;226.50;231333.00;;;;4979766;28;20228;-70
2022/03/12 05:48:41;;;;;;;0.20;0.20;;;1.70;1.00;226.50;231333.00;;;;4980260;28;20275;-71
2022/03/12 05:51:11;;;;;;;0.15;0.15;;;1.70;1.00;226.50;231333.00;;;;4980079;28;20642;-71
2022/03/12 05:53:39;;;;;;;0.10;0.10;;;1.70;1.00;226.50;231333.00;;;;4980645;28;20196;-70
2022/03/12 05:56:07;;;;;;;0.20;0.20;;;1.70;1.00;226.50;231333.00;;;;4979839;28;20197;-70
2022/03/12 05:58:39;;;;;;;0.10;0.10;;;1.70;1.00;226.50;231333.00;;;;4983184;28;20193;-70
2022/03/12 06:01:09;;;;;;;0.20;0.20;;;1.70;1.00;226.50;231333.00;;;;4985310;28;20306;-70
2022/03/12 06:03:37;;;;;;;0.10;0.10;;;1.70;1.00;226.50;231333.00;;;;4983288;28;20200;-71
2022/03/12 06:06:05;;;;;;;0.10;0.10;;;1.60;1.00;226.50;231333.00;;;;4982236;28;20197;-71
2022/03/12 06:08:34;;;;;;;0.10;0.10;;;1.60;1.00;226.50;231333.00;;;;4984128;28;20212;-72
2022/03/12 06:11:03;;;;;;;0.20;0.20;;;1.60;1.00;226.50;231333.00;;;;4966076;28;20220;-72
2022/03/12 06:13:32;;;;;;;0.13;0.13;;;1.60;1.00;226.50;231333.00;;;;4983070;28;20200;-71
2022/03/12 06:16:03;;;;;;;0.10;0.10;;;1.60;1.00;226.50;231333.00;;;;4983411;28;20204;-71
2022/03/12 06:18:35;;;;;;;0.10;0.10;;;1.60;1.00;226.50;231333.00;;;;4983520;28;20244;-70
2022/03/12 06:21:06;;;;;;;0.10;0.10;;;1.60;1.00;226.50;231333.00;;;;4983646;28;20231;-71
2022/03/12 06:23:36;;;;;;;0.10;0.10;;;1.70;1.00;226.50;231333.00;;;;4983437;28;20223;-71
2022/03/12 06:26:15;;;;;;;0.10;0.10;;;1.60;1.00;226.50;231333.00;;;;4981952;28;20246;-71
2022/03/12 06:28:43;;;;;;;0.10;0.10;;;1.60;1.00;226.50;231333.00;;;;4983681;28;20204;-71
2022/03/12 06:31:13;;;;;;;0.15;0.15;;;1.70;1.00;226.50;231333.00;;;;4982922;28;20241;-72
2022/03/12 06:33:42;;;;;;;0.20;0.20;;;1.60;1.00;226.50;231333.00;;;;4983185;28;20682;-71
2022/03/12 06:36:12;;;;;;;0.10;0.10;;;1.70;1.00;226.50;231333.00;;;;4982355;28;20197;-70
2022/03/12 06:38:41;;;;;;;0.10;0.10;;;1.80;1.00;226.50;231333.00;;;;4983942;28;20203;-70
2022/03/12 06:41:09;;;;;;;0.10;0.10;;;1.80;1.00;226.50;231333.00;;;;4982745;28;20275;-72
2022/03/12 06:43:43;;;;;;;0.15;0.15;;;1.80;1.00;226.50;231333.00;;;;4982751;28;20627;-72
2022/03/12 06:46:15;;;;;;;0.15;0.15;;;1.80;1.00;226.50;231333.00;;;;4981632;28;20208;-71
2022/03/12 06:48:45;;;;;;;0.13;0.13;;;1.90;1.00;226.50;231333.00;;;;4983627;28;20195;-70
2022/03/12 06:51:14;;;;;;;0.13;0.13;;;1.80;1.00;226.50;231333.00;;;;4984035;28;20962;-70
2022/03/12 06:53:43;;;;;;;0.10;0.10;;;1.90;1.00;226.50;231333.00;;;;4983148;28;20192;-71
2022/03/12 06:56:12;;;;;;;0.15;0.15;;;1.90;1.00;226.50;231333.00;;;;4983074;28;20208;-71
2022/03/12 06:58:40;;;;;;;0.15;0.15;;;2.00;1.00;226.50;231333.00;;;;4982088;28;20200;-69
2022/03/12 07:01:08;;;;;;;0.10;0.10;;;2.10;1.00;226.50;231333.00;;;;4981306;28;20283;-69
2022/03/12 07:03:36;;;;;;;0.10;0.10;;;2.20;1.00;226.50;231333.00;;;;4981554;28;20237;-73
2022/03/12 07:06:04;;;;;;;0.17;0.17;;;2.20;1.00;226.50;231333.00;;;;4982180;28;20621;-74
2022/03/12 07:08:32;;;;;;;0.13;0.13;;;2.20;1.00;226.50;231333.00;;;;4982327;28;20204;-72
2022/03/12 07:11:02;;;;;;;0.17;0.17;;;2.30;1.00;226.50;231333.00;;;;4981901;28;20224;-72
2022/03/12 07:13:30;;;;;;;0.15;0.15;;;2.40;1.00;226.50;231333.00;;;;4982988;28;20309;-69
2022/03/12 07:16:00;;;;;;;0.10;0.10;;;2.40;1.00;226.50;231333.00;;;;4980769;28;20686;-69
2022/03/12 07:18:29;;;;;;;0.10;0.10;;;2.40;1.00;226.50;231333.00;;;;4982022;28;20207;-71
2022/03/12 07:20:57;;;;;;;0.20;0.20;;;2.50;1.00;226.50;231333.00;;;;4982437;28;20228;-71
2022/03/12 07:23:25;;;;;;;0.10;0.10;;;2.60;1.00;226.50;231333.00;;;;4982539;28;20219;-71
2022/03/12 07:25:55;;;;;;;0.10;0.10;;;2.70;1.00;226.50;231333.00;;;;4982227;28;20196;-72
2022/03/12 07:28:24;;;;;;;0.10;0.10;;;2.70;1.00;226.50;231333.00;;;;4982455;28;20212;-72
2022/03/12 07:30:52;;;;;;;0.10;0.10;;;2.70;1.00;226.50;231333.00;;;;4980115;28;20220;-72
2022/03/12 07:33:21;;;;;;;0.10;0.10;;;2.80;1.00;226.50;231333.00;;;;4981144;28;20553;-72
2022/03/12 07:35:50;;;;;;;0.10;0.10;;;2.80;1.00;226.50;231333.00;;;;4980818;28;20205;-69
2022/03/12 07:38:18;;;;;;;0.10;0.10;;;2.80;1.00;226.50;231333.00;;;;4981339;28;20189;-73
2022/03/12 07:40:46;;;;;;;0.10;0.10;;;3.00;1.00;226.50;231333.00;;;;4981601;28;20225;-70
2022/03/12 07:43:14;;;;;;;0.10;0.10;;;3.10;1.00;226.50;231333.00;;;;4981055;28;20204;-70
2022/03/12 07:45:44;;;;;;;0.10;0.10;;;3.10;1.00;226.50;231333.00;;;;4982454;28;20201;-71
2022/03/12 07:48:13;;;;;;;0.10;0.10;;;3.20;1.00;226.50;231333.00;;;;4982301;28;20205;-69
2022/03/12 07:51:01;;;;;;;0.10;0.10;;;3.20;1.00;226.50;231333.00;;;;4981894;28;20256;-70
2022/03/12 07:53:30;;;;;;;0.10;0.10;;;3.30;1.00;226.50;231333.00;;;;4980953;28;20196;-69
2022/03/12 07:55:59;;;;;;;0.10;0.10;;;3.30;1.00;226.50;231333.00;;;;4982988;28;20207;-69
2022/03/12 07:58:28;;;;;;;0.10;0.10;;;3.30;1.00;226.50;231333.00;;;;4982337;28;20622;-69
2022/03/12 08:00:58;;;;;;;0.10;0.10;;;3.40;1.00;226.50;231333.00;;;;4980817;28;20227;-70
2022/03/12 08:03:26;;;;;;;0.10;0.10;;;3.40;1.00;226.50;231333.00;;;;4983298;28;20196;-70
2022/03/12 08:05:55;;;;;;;0.10;0.10;;;3.50;1.00;226.50;231333.00;;;;4982637;28;20193;-69
2022/03/12 08:08:23;;;;;;;0.10;0.10;;;3.60;1.00;226.50;231333.00;;;;4982182;28;20201;-69
2022/03/12 08:13:37;;;;;;;0.10;0.10;;;3.70;1.00;226.50;231333.00;;;;4982212;28;20195;-69
2022/03/12 08:16:07;;;;;;;0.10;0.10;;;3.70;1.00;226.50;231333.00;;;;4980666;28;20243;-69
2022/03/12 08:18:35;;;;;;;0.10;0.10;;;3.80;1.00;226.50;231333.00;;;;4983310;28;20275;-69
2022/03/12 08:21:03;;;;;;;0.10;0.10;;;3.80;1.00;226.50;231333.00;;;;4980786;28;20220;-69
2022/03/12 08:23:31;;;;;;;0.10;0.10;;;3.90;1.00;226.50;231333.00;;;;4982170;28;20200;-70
2022/03/12 08:26:00;;;;;;;0.10;0.10;;;4.00;1.00;226.50;231333.00;;;;4981478;28;20201;-69
2022/03/12 08:28:29;;;;;;;0.10;0.10;;;4.00;1.00;226.50;231333.00;;;;4982029;28;20200;-69
2022/03/12 08:30:57;;;;;;;0.10;0.10;;;4.10;1.00;226.50;231333.00;;;;4981318;28;20217;-70
2022/03/12 08:33:26;;;;;;;0.10;0.10;;;4.20;1.00;226.50;231333.00;;;;4981961;28;20292;-69
2022/03/12 08:35:56;;;;;;;0.10;0.10;;;4.30;1.00;226.50;231333.00;;;;4981839;28;20266;-70
2022/03/12 08:38:24;;;;;;;0.10;0.10;;;4.20;1.00;226.50;231333.00;;;;4983501;28;20941;-70
2022/03/12 08:40:52;;;;;;;0.10;0.10;;;4.30;1.00;226.50;231333.00;;;;4982111;28;20669;-70
2022/03/12 08:43:21;;;;;;;0.10;0.10;;;4.30;1.00;226.50;231333.00;;;;4981623;28;20192;-69
2022/03/12 08:45:49;;;;;;;0.10;0.10;;;4.40;1.00;226.50;231333.00;;;;4981816;28;20195;-72
2022/03/12 08:48:18;;;;;;;0.00;0.00;;;4.40;1.00;226.50;231333.00;;;;4981919;28;20224;-69
2022/03/12 08:50:48;;;;;;;0.10;0.10;;;4.30;1.00;226.50;231333.00;;;;4983454;28;20296;-69
2022/03/12 08:53:16;;;;;;;0.10;0.10;;;4.40;1.00;226.50;231333.00;;;;4986673;28;20192;-71
2022/03/12 08:55:44;;;;;;;0.10;0.10;;;4.50;1.00;226.50;231333.00;;;;4984815;28;20216;-69
2022/03/12 08:58:13;;;;;;;0.10;0.10;;;4.50;1.00;226.50;231333.00;;;;4985964;28;20193;-69
2022/03/12 09:00:43;;;;;;;0.10;0.10;;;4.50;1.00;226.50;231333.00;;;;4986759;28;20294;-69
2022/03/12 09:03:13;;;;;;;0.10;0.10;;;4.60;1.00;226.50;231333.00;;;;4984931;28;20267;-72
2022/03/12 09:05:43;;;;;;;0.10;0.10;;;4.60;1.00;226.50;231333.00;;;;4981658;28;20193;-72
2022/03/12 09:08:12;;;;;;;0.10;0.10;;;4.60;1.00;226.50;231333.00;;;;4983762;28;20252;-69
2022/03/12 09:10:40;;;;;;;0.10;0.10;;;4.70;1.00;226.50;231333.00;;;;4988892;28;20216;-70
2022/03/12 09:13:12;;;;;;;0.10;0.10;;;4.70;1.00;226.50;231333.00;;;;4990270;28;20226;-70
2022/03/12 09:15:41;;;;;;;0.10;0.10;;;4.70;1.00;226.50;231333.00;;;;4989738;28;20709;-70
2022/03/12 09:18:12;;;;;;;0.10;0.10;;;4.70;1.00;226.50;231333.00;;;;4987139;28;20210;-70
2022/03/12 09:20:43;;;;;;;0.10;0.10;;;4.70;1.00;226.50;231333.00;;;;4986535;28;20267;-70
2022/03/12 09:23:14;;;;;;;0.10;0.10;;;4.90;1.00;226.50;231333.00;;;;4984731;28;20692;-70
2022/03/12 09:25:42;;;;;;;0.10;0.10;;;4.80;1.00;226.50;231333.00;;;;4987264;28;20234;-70
2022/03/12 09:28:11;;;;;;;0.10;0.10;;;5.00;1.00;226.50;231333.00;;;;4988898;28;20224;-72
2022/03/12 09:30:39;;;;;;;0.00;0.00;;;5.00;1.00;226.50;231333.00;;;;4981440;28;20271;-70
2022/03/12 09:33:09;;;;;;;0.10;0.10;;;5.10;1.00;226.50;231333.00;;;;4986537;28;20201;-70
2022/03/12 09:35:38;;;;;;;0.10;0.10;;;5.20;1.00;226.50;231333.00;;;;4985857;28;20270;-70
2022/03/12 09:38:06;;;;;;;0.10;0.10;;;5.40;1.00;226.50;231333.00;;;;4984770;28;20204;-70
2022/03/12 09:40:35;;;;;;;0.10;0.10;;;5.40;1.00;226.50;231333.00;;;;4967019;28;20594;-70
2022/03/12 09:43:08;;;;;;;0.10;0.10;;;5.40;1.00;226.50;231333.00;;;;4967680;28;20197;-70
2022/03/12 09:45:37;;;;;;;0.10;0.10;;;5.60;1.00;226.50;231333.00;;;;4984573;28;20196;-70
2022/03/12 09:48:08;;;;;;;0.10;0.10;;;5.60;1.00;226.50;231333.00;;;;4984321;28;20617;-69
2022/03/12 09:50:36;;;;;;;0.20;0.20;;;5.60;1.00;226.50;231333.00;;;;4984900;28;20705;-70
2022/03/12 09:53:05;;;;;;;0.10;0.10;;;5.70;1.00;226.50;231333.00;;;;4984938;28;20204;-70
2022/03/12 09:55:35;;;;;;;0.10;0.10;;;5.80;1.00;226.50;231333.00;;;;4984899;28;20197;-70
2022/03/12 09:58:03;;;;;;;0.10;0.10;;;5.80;1.00;226.50;231333.00;;;;4983232;28;20255;-70
2022/03/12 10:00:31;;;;;;;0.10;0.10;;;6.00;1.00;226.50;231333.00;;;;4983715;28;20271;-70
2022/03/12 10:02:59;;;;;;;0.10;0.10;;;6.00;1.00;226.50;231333.00;;;;4984735;28;20200;-70
2022/03/12 10:05:28;;;;;;;0.00;0.00;;;6.00;1.00;226.50;231333.00;;;;4985199;28;20205;-70
2022/03/12 10:07:57;;;;;;;0.10;0.10;;;6.10;1.00;226.50;231333.00;;;;4985219;28;20264;-70
2022/03/12 10:10:25;;;;;;;0.10;0.10;;;6.10;1.00;226.50;231333.00;;;;4985170;28;20236;-70
2022/03/12 10:12:54;;;;;;;0.20;0.20;;;6.30;1.00;226.50;231333.00;;;;4966350;28;20232;-70
2022/03/12 10:15:22;;;;;;;0.03;0.03;;;6.40;1.00;226.50;231333.00;;;;4983426;28;20205;-70
2022/03/12 10:17:51;;;;;;;0.08;0.08;;;6.50;1.00;226.50;231333.00;;;;4984043;28;20209;-70
2022/03/12 10:20:24;;;;;;;0.10;0.10;;;6.50;1.00;226.50;231333.00;;;;4983858;28;20710;-70
2022/03/12 10:22:53;;;;;;;0.10;0.10;;;6.60;1.00;226.50;231333.00;;;;4983612;28;20698;-70
2022/03/12 10:25:21;;;;;;;0.10;0.10;;;6.70;1.00;226.50;231333.00;;;;4985207;28;20259;-70
2022/03/12 10:27:50;;;;;;;0.03;0.03;;;6.60;1.00;226.50;231333.00;;;;4983538;28;20625;-70
2022/03/12 10:30:19;;;;;;;0.10;0.10;;;6.70;1.00;226.50;231333.00;;;;4983509;28;20225;-69
2022/03/12 10:32:50;;;;;;;0.10;0.10;;;6.90;1.00;226.50;231333.00;;;;4982720;28;20221;-70
2022/03/12 10:35:21;;;;;;;0.10;0.10;;;7.00;1.00;226.50;231333.00;;;;4983542;28;20209;-69
2022/03/12 10:37:52;;;;;;;0.10;0.10;;;7.00;1.00;226.50;231333.00;;;;4984358;28;20190;-69
2022/03/12 10:40:23;;;;;;;0.10;0.10;;;6.90;1.00;226.50;231333.00;;;;4983612;28;20216;-69
2022/03/12 10:42:56;;;;;;;0.10;0.10;;;7.10;1.00;226.50;231333.00;;;;4982990;28;20200;-70
2022/03/12 10:45:39;;;;;;;0.10;0.10;;;7.20;1.00;226.50;231333.00;;;;4983632;28;20228;-70
2022/03/12 10:48:09;;;;;;;0.10;0.10;;;7.30;1.00;226.50;231333.00;;;;4982598;28;20619;-70
2022/03/12 10:50:41;;;;;;;0.10;0.10;;;7.30;1.00;226.50;231333.00;;;;4983399;28;20248;-70
2022/03/12 10:53:11;;;;;;;0.10;0.10;;;7.40;1.00;226.50;231333.00;;;;4983389;28;20236;-70
2022/03/12 10:55:42;;;;;;;0.10;0.10;;;7.50;1.00;226.50;231333.00;;;;4982983;28;20200;-70
2022/03/12 10:58:12;;;;;;;0.10;0.10;;;7.70;1.00;226.50;231333.00;;;;4983755;28;20205;-70
2022/03/12 11:00:46;;;;;;;0.10;0.10;;;7.70;1.00;226.50;231333.00;;;;4983399;28;20283;-70
2022/03/12 11:03:20;;;;;;;0.10;0.10;;;7.80;1.00;226.50;231333.00;;;;4983690;28;20205;-70
2022/03/12 11:05:51;;;;;;;0.10;0.10;;;8.10;1.00;226.50;231333.00;;;;4983982;28;20196;-70
2022/03/12 11:08:24;;;;;;;0.10;0.10;;;8.00;1.00;226.50;231333.00;;;;4984019;28;20686;-70
2022/03/12 11:10:57;;;;;;;0.10;0.10;;;8.20;1.00;226.50;231333.00;;;;4984153;28;20212;-70